Terminal Aerodrome Forecast
Issued by NWS

Home | Current Version | Previous Version | Text Only | Print | Product List | Glossary On
Versions: 1 2 3 4 5 6 7 8 9 10 11 12 13 14 15 16 17 18 19 20 21 22 23 24 25 26 27 28 29 30 31 32 33 34
000
FTUS43 KFGF 230520
TAFDVL
TAF
KDVL 230520Z 2306/2406 33009KT P6SM SCT040
     FM231500 36006KT P6SM SCT040
     FM232000 05006KT P6SM SKC
     FM232300 13005KT P6SM SKC=

USA.gov is the U.S. government's official web portal to all federal, state and local government web resources and services.